Flight Track Log - Related Links

Times and Time Zones

All times are in EDT time to prevent confusion due to time zone crossing. See the EJA929 flight status page for this flight to view local times or setup timezone preferences in your user account.

Time Position Orientation Groundspeed Altitude Reporting Facility
EDT Latitude Longitude Course Direction KTS MPH feet Rate Location/Type
Thu 02:08:45 PM 40.8167 -74.1333 282° West 220 253 1,500  Level New York TRACON
Thu 02:09:45 PM 40.8167 -74.2167 270° West 217 250 2,900 1,900 Climbing New York TRACON
Thu 02:10:45 PM 40.8167 -74.3000 270° West 242 278 5,300 2,350 Climbing New York TRACON
Thu 02:11:45 PM 40.8500 -74.3667 303° West 265 305 7,600 2,158 Climbing New York TRACON
Thu 02:12:39 PM 40.9167 -74.3833 349° North 281 323 9,400 2,000 Climbing New York TRACON
Thu 02:13:39 PM 41.0000 -74.4167 343° North 298 343 11,400 1,651 Climbing New York TRACON
Thu 02:14:00 PM 41.0588 -75.4494 282° West  Level Estimated
Thu 02:15:48 PM 41.1689 -74.5111 337° Northwest 320 368 14,600  Level New York Center
Thu 02:16:48 PM 41.2550 -74.5603 337° Northwest 331 381 16,200 1,525 Climbing New York Center
Thu 02:17:46 PM 41.3189 -74.6467 315° West 326 375 17,600 1,373 Climbing New York Center
Thu 02:18:46 PM 41.3697 -74.7408 306° West 336 387 18,900 1,438 Climbing New York Center
Thu 02:19:47 PM 41.4325 -74.8525 307° West 341 392 20,500 1,488 Climbing New York Center
Thu 02:20:47 PM 41.4936 -74.9586 308° West 352 405 21,900 1,350 Climbing New York Center
Thu 02:21:47 PM 41.5542 -75.0650 307° West 352 405 23,200 1,328 Climbing New York Center
Thu 02:22:49 PM 41.6147 -75.1714 307° West 359 413 24,600 1,412 Climbing New York Center
Thu 02:23:46 PM 41.6794 -75.2814 308° West 370 426 26,000 1,462 Climbing New York Center
Thu 02:24:48 PM 41.7267 -75.4094 296° West 380 437 27,500 1,462 Climbing New York Center
Thu 02:25:45 PM 41.7583 -75.5508 287° West 380 437 28,900 1,525 Climbing New York Center
Thu 02:26:46 PM 41.7903 -75.6867 288° West 394 453 30,500 1,388 Climbing New York Center
Thu 02:27:46 PM 41.8239 -75.8283 288° West 394 453 31,700 1,091 Climbing New York Center
Thu 02:28:47 PM 41.8572 -75.9756 287° West 406 467 32,700 984 Climbing New York Center
Thu 02:29:48 PM 41.8919 -76.1286 287° West 418 481 33,700 992 Climbing New York Center
Thu 02:30:48 PM 41.9286 -76.2850 288° West 428 493 34,700 1,068 Climbing New York Center
Thu 02:31:46 PM 41.9628 -76.4442 286° West 439 505 35,800 1,059 Climbing New York Center
Thu 02:32:47 PM 41.9986 -76.6064 287° West 449 517 36,800 786 Climbing New York Center
Thu 02:34:34 PM 42.0681 -76.9047 288° West 448 516 38,000 431 Climbing Cleveland Center
Thu 02:35:34 PM 42.1192 -77.0725 292° West 458 527 38,000  Level Cleveland Center
Thu 02:36:34 PM 42.1986 -77.2225 306° West 480 552 38,000  Level Cleveland Center
Thu 02:37:34 PM 42.2625 -77.3453 305° West 488 562 38,000  Level Cleveland Center
Thu 02:38:34 PM 42.3483 -77.5094 305° West 493 567 38,000  Level Cleveland Center
Thu 02:39:34 PM 42.4253 -77.6633 304° West 498 573 38,000  Level Cleveland Center
Thu 02:40:34 PM 42.5003 -77.8233 302° West 503 579 38,000  Level Cleveland Center
Thu 02:41:34 PM 42.5439 -78.0017 288° West 490 564 38,000  Level Cleveland Center
Thu 02:42:34 PM 42.5667 -78.1897 279° West 495 570 38,000  Level Cleveland Center
Thu 02:43:34 PM 42.5872 -78.3750 279° West 506 582 38,000 50 Level Cleveland Center
Thu 02:44:34 PM 42.6053 -78.5692 277° West 506 582 38,100 350 Climbing Cleveland Center
Thu 02:45:34 PM 42.6250 -78.7489 279° West 511 588 38,700 550 Climbing Cleveland Center
Thu 02:46:34 PM 42.6444 -78.9375 278° West 504 580 39,200 500 Climbing Cleveland Center
Thu 02:47:34 PM 42.6594 -79.1208 276° West 499 574 39,700 400 Climbing Cleveland Center
Thu 02:48:34 PM 42.6803 -79.3094 279° West 504 580 40,000 150 Climbing Cleveland Center
Thu 02:49:34 PM 42.6989 -79.4928 278° West 499 574 40,000  Level Cleveland Center
Thu 02:50:34 PM 42.7131 -79.6789 276° West 499 574 40,000  Level Cleveland Center
Thu 02:51:34 PM 42.7311 -79.8653 278° West 499 574 40,000  Level Cleveland Center
Thu 02:52:34 PM 42.7467 -80.0742 276° West 499 574 40,000  Level Cleveland Center
Thu 02:53:34 PM 42.7642 -80.2664 277° West 499 574 40,000  Level Cleveland Center
Thu 02:54:34 PM 42.7811 -80.4503 277° West 499 574 40,000  Level Cleveland Center
Thu 02:55:34 PM 42.7936 -80.6425 275° West 499 574 40,000  Level Cleveland Center
Thu 02:56:34 PM 42.8100 -80.8239 277° West 499 574 40,000  Level Cleveland Center
Thu 02:57:34 PM 42.8261 -81.0136 277° West 504 580 40,000  Level Cleveland Center
Thu 02:58:34 PM 42.8378 -81.2003 275° West 498 573 40,000  Level Cleveland Center
Thu 02:59:34 PM 42.8533 -81.3875 277° West 507 583 40,000  Level Cleveland Center
Thu 03:00:34 PM 42.8664 -81.5747 275° West 501 577 40,000  Level Cleveland Center
Thu 03:01:34 PM 42.8814 -81.7589 276° West 501 577 40,000  Level Cleveland Center
Thu 03:02:34 PM 42.8919 -81.9433 275° West 496 571 40,000  Level Cleveland Center
Thu 03:03:34 PM 42.9061 -82.1336 276° West 501 577 40,000  Level Cleveland Center
Thu 03:04:34 PM 42.9203 -82.3211 276° West 501 577 40,000  Level Cleveland Center
Thu 03:05:34 PM 42.9317 -82.5086 275° West 501 577 40,000  Level Cleveland Center
Thu 03:06:34 PM 42.9453 -82.6961 276° West 501 577 40,000  Level Cleveland Center
Thu 03:07:34 PM 42.9561 -82.8839 275° West 501 577 40,000  Level Cleveland Center
Thu 03:08:34 PM 42.9689 -83.0744 275° West 501 577 40,000  Level Cleveland Center
Thu 03:09:34 PM 42.9792 -83.2622 274° West 501 577 40,000  Level Cleveland Center
Thu 03:10:34 PM 42.9914 -83.4528 275° West 501 577 40,000  Level Cleveland Center
Thu 03:11:34 PM 43.0031 -83.6436 275° West 501 577 40,000  Level Cleveland Center
Thu 03:12:34 PM 43.0125 -83.8317 274° West 501 577 40,000  Level Cleveland Center
Thu 03:13:34 PM 43.0217 -84.0194 274° West 501 577 40,000  Level Cleveland Center
Thu 03:14:34 PM 43.0311 -84.1933 274° West 509 586 40,000  Level Cleveland Center
Thu 03:15:34 PM 43.0408 -84.4042 274° West 509 586 40,000  Level Cleveland Center
Thu 03:16:34 PM 43.0511 -84.5925 274° West 509 586 40,000  Level Cleveland Center
Thu 03:17:34 PM 43.0592 -84.7806 273° West 499 574 40,000  Level Cleveland Center
Thu 03:18:34 PM 43.0667 -84.9717 273° West 504 580 40,000  Level Cleveland Center
Thu 03:19:57 PM 43.0803 -85.2203 274° West 502 578 40,000 123 Level Chicago Center
Thu 03:21:00 PM 43.0886 -85.4106 273° West 503 579 40,300 576 Climbing Chicago Center
Thu 03:22:02 PM 43.0958 -85.5900 273° West 495 570 41,200 1,016 Climbing Chicago Center
Thu 03:23:04 PM 43.1042 -85.8081 273° West 480 552 42,400 871 Climbing Chicago Center
Thu 03:24:06 PM 43.1106 -85.9889 273° West 476 548 43,000 290 Climbing Chicago Center
Thu 03:25:08 PM 43.1164 -86.1689 273° West 474 545 43,000  Level Chicago Center
Thu 03:26:10 PM 43.1219 -86.3525 272° West 480 552 43,000  Level Chicago Center
Thu 03:27:12 PM 43.1286 -86.5350 273° West 480 552 43,000  Level Chicago Center
Thu 03:28:14 PM 43.1347 -86.7403 272° West 482 555 43,000  Level Chicago Center
Thu 03:29:16 PM 43.1392 -86.9244 272° West 483 556 43,000  Level Chicago Center
Thu 03:30:19 PM 43.1439 -87.1083 272° West 483 556 43,000  Level Chicago Center
Thu 03:31:21 PM 43.1489 -87.2928 272° West 484 557 43,000  Level Chicago Center
Thu 03:32:23 PM 43.1536 -87.5081 272° West 483 556 43,000  Level Chicago Center
Thu 03:33:25 PM 43.1581 -87.6942 272° West 487 560 43,000  Level Chicago Center
Thu 03:34:27 PM 43.1608 -87.8800 271° West 487 560 43,000  Level Chicago Center
Thu 03:35:29 PM 43.1636 -88.0664 271° West 487 560 43,000  Level Chicago Center
Thu 03:36:31 PM 43.1664 -88.2528 271° West 487 560 43,000  Level Chicago Center
Thu 03:37:33 PM 43.1683 -88.4419 271° West 491 565 43,000  Level Chicago Center
Thu 03:38:35 PM 43.1719 -88.6633 271° West 491 565 43,000  Level Chicago Center
Thu 03:39:37 PM 43.1742 -88.8522 271° West 492 566 43,000  Level Chicago Center
Thu 03:40:40 PM 43.1772 -89.0403 271° West 493 567 43,000  Level Chicago Center
Thu 03:41:42 PM 43.1789 -89.2281 271° West 491 565 43,000  Level Chicago Center
Thu 03:42:44 PM 43.1808 -89.4153 271° West 490 564 43,000  Level Chicago Center
Thu 03:43:46 PM 43.1789 -89.6011 269° West 490 564 43,000  Level Chicago Center
Thu 03:44:48 PM 43.1800 -89.8203 270° West 491 565 43,000  Level Chicago Center
Thu 03:45:50 PM 43.1803 -90.0064 270° West 490 564 43,000  Level Chicago Center
Thu 03:46:52 PM 43.1806 -90.1925 270° West 489 563 43,000  Level Chicago Center
Thu 03:47:54 PM 43.1797 -90.3933 270° West 489 563 43,000  Level Chicago Center
Thu 03:48:56 PM 43.1792 -90.5792 270° West 493 567 43,000  Level Chicago Center
Thu 03:49:59 PM 43.1786 -90.7625 270° West 489 563 43,000  Level Chicago Center
Thu 03:50:52 PM 43.1783 -90.9467 270° West 490 564 43,000  Level Minneapolis Center
Thu 03:51:54 PM 43.1772 -91.1306 270° West 491 565 43,000  Level Minneapolis Center
Thu 03:52:56 PM 43.1767 -91.3144 270° West 491 565 43,000  Level Minneapolis Center
Thu 03:53:58 PM 43.1756 -91.4614 269° West 491 565 43,000  Level Minneapolis Center
Thu 03:55:00 PM 43.1708 -91.7181 269° West 491 565 43,000  Level Minneapolis Center
Thu 03:56:03 PM 43.1686 -91.9039 269° West 495 570 43,000  Level Minneapolis Center
Thu 03:57:04 PM 43.1656 -92.0517 268° West 495 570 43,000  Level Minneapolis Center
Thu 03:58:06 PM 43.1619 -92.2328 268° West 489 563 43,000  Level Minneapolis Center
Thu 03:59:09 PM 43.1572 -92.4556 268° West 494 568 43,000  Level Minneapolis Center
Thu 04:00:11 PM 43.1511 -92.6792 268° West 498 573 43,000  Level Minneapolis Center
Thu 04:01:13 PM 43.1481 -92.8272 268° West 493 567 43,000  Level Minneapolis Center
Thu 04:02:16 PM 43.1422 -93.0481 268° West 492 566 43,000  Level Minneapolis Center
Thu 04:03:18 PM 43.1367 -93.2328 268° West 491 565 43,000  Level Minneapolis Center
Thu 04:04:20 PM 43.1317 -93.4558 268° West 492 566 43,000  Level Minneapolis Center
Thu 04:05:22 PM 43.1256 -93.6400 267° West 492 566 43,000  Level Minneapolis Center
Thu 04:06:24 PM 43.1194 -93.8253 267° West 492 566 43,000  Level Minneapolis Center
Thu 04:07:26 PM 43.1136 -94.0094 268° West 490 564 43,000  Level Minneapolis Center
Thu 04:08:28 PM 43.1053 -94.2319 267° West 492 566 43,000  Level Minneapolis Center
Thu 04:09:30 PM 43.0992 -94.4031 267° West 490 564 43,000  Level Minneapolis Center
Thu 04:10:32 PM 43.0914 -94.5897 267° West 490 564 43,000  Level Minneapolis Center
Thu 04:11:34 PM 43.0872 -94.7356 268° West 484 557 43,000  Level Minneapolis Center
Thu 04:12:37 PM 43.0758 -94.9947 267° West 487 560 43,000  Level Minneapolis Center
Thu 04:13:39 PM 43.0669 -95.1836 266° West 493 567 43,000  Level Minneapolis Center
Thu 04:14:41 PM 43.0594 -95.3694 267° West 490 564 43,000  Level Minneapolis Center
Thu 04:15:43 PM 43.0494 -95.5556 266° West 491 565 43,000  Level Minneapolis Center
Thu 04:16:45 PM 43.0411 -95.7428 267° West 492 566 43,000  Level Minneapolis Center
Thu 04:17:47 PM 43.0317 -95.9308 266° West 495 570 43,000  Level Minneapolis Center
Thu 04:18:49 PM 43.0200 -96.1550 266° West 493 567 43,000  Level Minneapolis Center
Thu 04:19:51 PM 43.0094 -96.3408 266° West 492 566 43,000  Level Minneapolis Center
Thu 04:20:53 PM 42.9992 -96.5283 266° West 493 567 43,000  Level Minneapolis Center
Thu 04:21:55 PM 42.9881 -96.7139 265° West 492 566 43,000  Level Minneapolis Center
Thu 04:23:09 PM 42.9769 -96.9008 265° West 494 568 43,000  Level Minneapolis Center
Thu 04:24:12 PM 42.9633 -97.1253 265° West 494 568 43,000  Level Minneapolis Center
Thu 04:25:14 PM 42.9497 -97.3489 265° West 494 568 43,000  Level Minneapolis Center
Thu 04:26:16 PM 42.9403 -97.4964 265° West 490 564 43,000  Level Minneapolis Center
Thu 04:27:18 PM 42.9253 -97.7203 265° West 493 567 43,000  Level Minneapolis Center
Thu 04:28:32 PM 42.9128 -97.9067 265° West 496 571 43,000  Level Minneapolis Center
Thu 04:29:35 PM 42.8961 -98.1278 264° West 492 566 43,000  Level Minneapolis Center
Thu 04:30:37 PM 42.8839 -98.3150 265° West 493 567 43,000  Level Minneapolis Center
Thu 04:31:39 PM 42.8686 -98.5350 265° West 489 563 43,000  Level Minneapolis Center
Thu 04:32:41 PM 42.8539 -98.7203 264° West 492 566 43,000  Level Minneapolis Center
Thu 04:33:43 PM 42.8392 -98.9058 264° West 493 567 43,000  Level Minneapolis Center
Thu 04:34:45 PM 42.8253 -99.0886 264° West 489 563 43,000  Level Minneapolis Center
Thu 04:35:47 PM 42.8108 -99.2725 264° West 489 563 43,000  Level Minneapolis Center
Thu 04:36:49 PM 42.7953 -99.4575 264° West 493 567 43,000  Level Minneapolis Center
Thu 04:37:51 PM 42.7772 -99.6794 264° West 494 568 43,000  Level Minneapolis Center
Thu 04:38:53 PM 42.7600 -99.8636 263° West 492 566 43,000  Level Minneapolis Center
Thu 04:39:55 PM 42.7444 -100.0461 263° West 489 563 43,000  Level Minneapolis Center
Thu 04:40:38 PM 42.7333 -100.1694 263° West 493 567 43,000  Level Denver Center
Thu 04:41:40 PM 42.7164 -100.3611 263° West 491 565 43,000  Level Denver Center
Thu 04:42:42 PM 42.6978 -100.5653 263° West 488 562 43,000  Level Denver Center
Thu 04:43:44 PM 42.6814 -100.7425 263° West 492 566 43,000  Level Denver Center
Thu 04:44:46 PM 42.6617 -100.9467 263° West 490 564 43,000  Level Denver Center
Thu 04:45:48 PM 42.6453 -101.1211 263° West 488 562 43,000  Level Denver Center
Thu 04:46:51 PM 42.6242 -101.3267 262° West 492 566 43,000  Level Denver Center
Thu 04:47:53 PM 42.6069 -101.5014 262° West 491 565 43,000  Level Denver Center
Thu 04:48:55 PM 42.5869 -101.7047 262° West 489 563 43,000  Level Denver Center
Thu 04:49:57 PM 42.5672 -101.8761 261° West 491 565 43,000  Level Denver Center
Thu 04:50:59 PM 42.5461 -102.0800 262° West 491 565 43,000  Level Denver Center
Thu 04:52:01 PM 42.5286 -102.2553 262° West 491 565 43,000  Level Denver Center
Thu 04:53:03 PM 42.5072 -102.4586 262° West 490 564 43,000  Level Denver Center
Thu 04:54:05 PM 42.4878 -102.6325 261° West 487 560 43,000  Level Denver Center
Thu 04:55:07 PM 42.4636 -102.8372 261° West 492 566 43,000  Level Denver Center
Thu 04:56:09 PM 42.4450 -103.0103 262° West 487 560 43,000  Level Denver Center
Thu 04:57:11 PM 42.4203 -103.2128 261° West 487 560 43,000  Level Denver Center
Thu 04:58:13 PM 42.4003 -103.3856 261° West 486 559 43,000  Level Denver Center
Thu 04:59:16 PM 42.3767 -103.5867 261° West 485 558 43,000  Level Denver Center
Thu 05:00:18 PM 42.3553 -103.7608 261° West 488 562 43,000  Level Denver Center
Thu 05:01:20 PM 42.3336 -103.9350 261° West 489 563 43,000  Level Denver Center
Thu 05:02:22 PM 42.3094 -104.1369 261° West 487 560 43,000  Level Denver Center
Thu 05:03:24 PM 42.2864 -104.3122 260° West 492 566 43,000  Level Denver Center
Thu 05:04:26 PM 42.2603 -104.5156 260° West 490 564 43,000  Level Denver Center
Thu 05:05:28 PM 42.2381 -104.6894 260° West 488 562 43,000  Level Denver Center
Thu 05:06:30 PM 42.2122 -104.8908 260° West 485 558 43,000  Level Denver Center
Thu 05:07:32 PM 42.1894 -105.0642 260° West 488 562 43,000  Level Denver Center
Thu 05:08:34 PM 42.1669 -105.2342 260° West 482 555 43,000  Level Denver Center
Thu 05:09:36 PM 42.1397 -105.4347 260° West 485 558 43,000  Level Denver Center
Thu 05:10:38 PM 42.1161 -105.6044 259° West 481 554 43,000  Level Denver Center
Thu 05:11:40 PM 42.0872 -105.8042 259° West 483 556 43,000  Level Denver Center
Thu 05:12:42 PM 42.0639 -105.9744 260° West 483 556 43,000  Level Denver Center
Thu 05:13:45 PM 42.0353 -106.1731 259° West 484 557 43,000  Level Denver Center
Thu 05:14:47 PM 42.0114 -106.3439 259° West 485 558 43,000  Level Denver Center
Thu 05:15:49 PM 41.9842 -106.5364 259° West 485 558 43,000  Level Denver Center
Thu 05:16:51 PM 41.9581 -106.7044 258° West 481 554 43,000  Level Denver Center
Thu 05:17:53 PM 41.9289 -106.9022 259° West 484 557 43,000  Level Denver Center
Thu 05:18:55 PM 41.9036 -107.0703 259° West 480 552 43,000  Level Denver Center
Thu 05:19:57 PM 41.8731 -107.2664 258° West 481 554 43,000  Level Denver Center
Thu 05:20:59 PM 41.8475 -107.4364 259° West 483 556 43,000  Level Denver Center
Thu 05:22:01 PM 41.8172 -107.6317 258° West 480 552 43,000  Level Denver Center
Thu 05:23:03 PM 41.7900 -107.7992 258° West 482 555 43,000  Level Denver Center
Thu 05:24:05 PM 41.7592 -107.9925 258° West 477 549 43,000  Level Denver Center
Thu 05:25:07 PM 41.7325 -108.1617 258° West 485 558 43,000  Level Denver Center
Thu 05:26:10 PM 41.7006 -108.3533 257° West 474 545 43,000  Level Denver Center
Thu 05:27:12 PM 41.6739 -108.5214 258° West 481 554 43,000  Level Denver Center
Thu 05:28:14 PM 41.6414 -108.7153 257° West 481 554 43,000  Level Denver Center
Thu 05:29:16 PM 41.6136 -108.8808 257° West 481 554 43,000  Level Denver Center
Thu 05:30:41 PM 41.5522 -109.1175 251° West 477 549 43,000  Level Salt Lake Center
Thu 05:31:43 PM 41.4728 -109.2889 238° Southwest 497 572 43,000 -242 Level Salt Lake Center
Thu 05:32:45 PM 41.4067 -109.4294 238° Southwest 479 551 42,500 -1,548 Descending Salt Lake Center
Thu 05:33:47 PM 41.3311 -109.5964 239° Southwest 474 545 39,800 -2,613 Descending Salt Lake Center
Thu 05:34:49 PM 41.2669 -109.7392 239° Southwest 472 543 37,100 -2,952 Descending Salt Lake Center
Thu 05:35:51 PM 41.1911 -109.9050 239° Southwest 470 541 33,700 -3,145 Descending Salt Lake Center
Thu 05:36:53 PM 41.1264 -110.0472 239° Southwest 471 542 30,600 -2,855 Descending Salt Lake Center
Thu 05:37:55 PM 41.0464 -110.2225 239° Southwest 494 568 27,800 -2,516 Descending Salt Lake Center
Thu 05:38:57 PM 40.9769 -110.3728 239° Southwest 501 577 25,400 -2,640 Descending Salt Lake Center
Thu 05:40:00 PM 40.9036 -110.5306 238° Southwest 457 526 22,300 -2,516 Descending Salt Lake Center
Thu 05:41:01 PM 40.8442 -110.6589 239° Southwest 414 476 20,200 -1,756 Descending Salt Lake Center
Thu 05:42:03 PM 40.7922 -110.7728 239° Southwest 370 426 18,700 -1,935 Descending Salt Lake Center
Thu 05:43:05 PM 40.7378 -110.8919 239° Southwest 376 433 16,200 -1,839 Descending Salt Lake Center
Thu 05:44:07 PM 40.6828 -111.0133 239° Southwest 383 441 14,900 -677 Descending Salt Lake Center
Thu 05:45:09 PM 40.6339 -111.1217 239° Southwest 353 406 14,800 -532 Descending Salt Lake Center
Thu 05:46:11 PM 40.5808 -111.2433 240° Southwest 326 375 13,800 -2,129 Descending Salt Lake Center
Thu 05:47:13 PM 40.5394 -111.3397 241° Southwest 314 361 10,400 -3,290 Descending Salt Lake Center

Login

Don't have an account? Register now (free) for customized features, flight alerts, and more!